sensor_id;sensor_type;location;lat;lon;timestamp;P1;durP1;ratioP1;P2;durP2;ratioP2
37459;SDS011;23318;50.966;5.284;2024-01-11T00:00:47;44.50;;;17.48;;
37459;SDS011;23318;50.966;5.284;2024-01-11T00:03:13;45.83;;;17.38;;
37459;SDS011;23318;50.966;5.284;2024-01-11T00:05:39;47.20;;;19.33;;
37459;SDS011;23318;50.966;5.284;2024-01-11T00:08:06;48.17;;;18.88;;
37459;SDS011;23318;50.966;5.284;2024-01-11T00:10:32;46.72;;;18.90;;
37459;SDS011;23318;50.966;5.284;2024-01-11T00:12:58;38.83;;;16.98;;
37459;SDS011;23318;50.966;5.284;2024-01-11T00:15:23;42.67;;;16.50;;
37459;SDS011;23318;50.966;5.284;2024-01-11T00:17:49;43.30;;;17.48;;
37459;SDS011;23318;50.966;5.284;2024-01-11T00:20:14;43.03;;;18.30;;
37459;SDS011;23318;50.966;5.284;2024-01-11T00:22:40;46.63;;;17.95;;
37459;SDS011;23318;50.966;5.284;2024-01-11T00:25:06;54.60;;;19.08;;
37459;SDS011;23318;50.966;5.284;2024-01-11T00:27:32;43.17;;;18.25;;
37459;SDS011;23318;50.966;5.284;2024-01-11T00:29:58;42.78;;;17.50;;
37459;SDS011;23318;50.966;5.284;2024-01-11T00:32:24;41.13;;;17.10;;
37459;SDS011;23318;50.966;5.284;2024-01-11T00:34:50;38.70;;;16.83;;
37459;SDS011;23318;50.966;5.284;2024-01-11T00:37:16;42.20;;;16.42;;
37459;SDS011;23318;50.966;5.284;2024-01-11T00:39:41;41.92;;;16.85;;
37459;SDS011;23318;50.966;5.284;2024-01-11T00:42:07;45.65;;;17.30;;
37459;SDS011;23318;50.966;5.284;2024-01-11T00:44:33;48.47;;;17.30;;
37459;SDS011;23318;50.966;5.284;2024-01-11T00:46:59;49.47;;;19.33;;
37459;SDS011;23318;50.966;5.284;2024-01-11T00:49:24;53.47;;;19.10;;
37459;SDS011;23318;50.966;5.284;2024-01-11T00:51:50;44.05;;;18.10;;
37459;SDS011;23318;50.966;5.284;2024-01-11T00:54:15;43.67;;;17.27;;
37459;SDS011;23318;50.966;5.284;2024-01-11T00:56:41;42.10;;;17.83;;
37459;SDS011;23318;50.966;5.284;2024-01-11T00:59:07;41.35;;;18.30;;
37459;SDS011;23318;50.966;5.284;2024-01-11T01:01:32;46.33;;;18.58;;
37459;SDS011;23318;50.966;5.284;2024-01-11T01:03:58;39.55;;;17.08;;
37459;SDS011;23318;50.966;5.284;2024-01-11T01:06:24;50.60;;;18.60;;
37459;SDS011;23318;50.966;5.284;2024-01-11T01:08:50;42.28;;;17.10;;
37459;SDS011;23318;50.966;5.284;2024-01-11T01:11:15;37.65;;;15.85;;
37459;SDS011;23318;50.966;5.284;2024-01-11T01:13:41;43.80;;;18.25;;
37459;SDS011;23318;50.966;5.284;2024-01-11T01:16:07;46.50;;;18.02;;
37459;SDS011;23318;50.966;5.284;2024-01-11T01:18:32;36.75;;;16.25;;
37459;SDS011;23318;50.966;5.284;2024-01-11T01:20:58;44.85;;;17.50;;
37459;SDS011;23318;50.966;5.284;2024-01-11T01:23:24;40.30;;;17.30;;
37459;SDS011;23318;50.966;5.284;2024-01-11T01:25:49;49.38;;;17.35;;
37459;SDS011;23318;50.966;5.284;2024-01-11T01:28:15;40.90;;;17.48;;
37459;SDS011;23318;50.966;5.284;2024-01-11T01:30:40;40.47;;;16.40;;
37459;SDS011;23318;50.966;5.284;2024-01-11T01:33:06;42.88;;;16.80;;
37459;SDS011;23318;50.966;5.284;2024-01-11T01:35:32;39.45;;;16.50;;
37459;SDS011;23318;50.966;5.284;2024-01-11T01:37:59;47.90;;;17.45;;
37459;SDS011;23318;50.966;5.284;2024-01-11T01:40:25;44.60;;;17.67;;
37459;SDS011;23318;50.966;5.284;2024-01-11T01:42:57;43.22;;;17.45;;
37459;SDS011;23318;50.966;5.284;2024-01-11T01:45:24;45.53;;;17.35;;
37459;SDS011;23318;50.966;5.284;2024-01-11T01:47:50;43.35;;;17.67;;
37459;SDS011;23318;50.966;5.284;2024-01-11T01:50:16;44.75;;;17.45;;
37459;SDS011;23318;50.966;5.284;2024-01-11T01:52:43;42.15;;;18.38;;
37459;SDS011;23318;50.966;5.284;2024-01-11T01:55:09;43.83;;;17.80;;
37459;SDS011;23318;50.966;5.284;2024-01-11T01:57:37;43.95;;;16.95;;
37459;SDS011;23318;50.966;5.284;2024-01-11T02:00:08;42.25;;;17.15;;
37459;SDS011;23318;50.966;5.284;2024-01-11T02:02:35;48.58;;;17.67;;
37459;SDS011;23318;50.966;5.284;2024-01-11T02:05:02;39.28;;;17.10;;
37459;SDS011;23318;50.966;5.284;2024-01-11T02:07:27;41.63;;;17.25;;
37459;SDS011;23318;50.966;5.284;2024-01-11T02:09:53;51.38;;;17.92;;
37459;SDS011;23318;50.966;5.284;2024-01-11T02:12:20;44.95;;;18.42;;
37459;SDS011;23318;50.966;5.284;2024-01-11T02:14:46;43.25;;;19.00;;
37459;SDS011;23318;50.966;5.284;2024-01-11T02:17:11;41.53;;;17.40;;
37459;SDS011;23318;50.966;5.284;2024-01-11T02:19:37;46.08;;;18.88;;
37459;SDS011;23318;50.966;5.284;2024-01-11T02:22:05;45.70;;;18.15;;
37459;SDS011;23318;50.966;5.284;2024-01-11T02:24:38;46.90;;;18.70;;
37459;SDS011;23318;50.966;5.284;2024-01-11T02:27:04;48.13;;;20.90;;
37459;SDS011;23318;50.966;5.284;2024-01-11T02:29:30;59.50;;;23.90;;
37459;SDS011;23318;50.966;5.284;2024-01-11T02:31:56;52.33;;;19.73;;
37459;SDS011;23318;50.966;5.284;2024-01-11T02:34:24;47.50;;;20.58;;
37459;SDS011;23318;50.966;5.284;2024-01-11T02:36:51;45.95;;;19.55;;
37459;SDS011;23318;50.966;5.284;2024-01-11T02:39:18;43.55;;;18.60;;
37459;SDS011;23318;50.966;5.284;2024-01-11T02:41:44;45.28;;;19.08;;
37459;SDS011;23318;50.966;5.284;2024-01-11T02:44:11;41.67;;;17.75;;
37459;SDS011;23318;50.966;5.284;2024-01-11T02:46:37;38.38;;;16.58;;
37459;SDS011;23318;50.966;5.284;2024-01-11T02:49:02;41.25;;;18.38;;
37459;SDS011;23318;50.966;5.284;2024-01-11T02:51:28;48.95;;;17.95;;
37459;SDS011;23318;50.966;5.284;2024-01-11T02:53:54;44.58;;;17.80;;
37459;SDS011;23318;50.966;5.284;2024-01-11T02:56:19;41.13;;;18.23;;
37459;SDS011;23318;50.966;5.284;2024-01-11T02:58:45;39.97;;;16.95;;
37459;SDS011;23318;50.966;5.284;2024-01-11T03:01:11;44.33;;;18.25;;
37459;SDS011;23318;50.966;5.284;2024-01-11T03:03:36;43.08;;;18.23;;
37459;SDS011;23318;50.966;5.284;2024-01-11T03:06:02;44.25;;;17.95;;
37459;SDS011;23318;50.966;5.284;2024-01-11T03:08:28;45.55;;;18.20;;
37459;SDS011;23318;50.966;5.284;2024-01-11T03:10:54;47.55;;;18.75;;
37459;SDS011;23318;50.966;5.284;2024-01-11T03:13:20;50.30;;;18.50;;
37459;SDS011;23318;50.966;5.284;2024-01-11T03:15:45;44.78;;;17.27;;
37459;SDS011;23318;50.966;5.284;2024-01-11T03:18:11;41.33;;;18.20;;
37459;SDS011;23318;50.966;5.284;2024-01-11T03:20:37;45.03;;;18.75;;
37459;SDS011;23318;50.966;5.284;2024-01-11T03:23:02;41.28;;;17.17;;
37459;SDS011;23318;50.966;5.284;2024-01-11T03:25:31;41.33;;;17.58;;
37459;SDS011;23318;50.966;5.284;2024-01-11T03:28:00;45.95;;;17.58;;
37459;SDS011;23318;50.966;5.284;2024-01-11T03:30:25;47.53;;;19.38;;
37459;SDS011;23318;50.966;5.284;2024-01-11T03:32:51;41.83;;;18.02;;
37459;SDS011;23318;50.966;5.284;2024-01-11T03:35:17;45.03;;;18.23;;
37459;SDS011;23318;50.966;5.284;2024-01-11T03:37:44;43.05;;;18.40;;
37459;SDS011;23318;50.966;5.284;2024-01-11T03:40:10;44.70;;;17.02;;
37459;SDS011;23318;50.966;5.284;2024-01-11T03:42:36;50.08;;;19.17;;
37459;SDS011;23318;50.966;5.284;2024-01-11T03:45:01;49.17;;;18.75;;
37459;SDS011;23318;50.966;5.284;2024-01-11T03:47:28;53.00;;;21.02;;
37459;SDS011;23318;50.966;5.284;2024-01-11T03:49:54;46.05;;;19.70;;
37459;SDS011;23318;50.966;5.284;2024-01-11T03:52:19;45.90;;;18.85;;
37459;SDS011;23318;50.966;5.284;2024-01-11T03:54:46;45.35;;;18.50;;
37459;SDS011;23318;50.966;5.284;2024-01-11T03:57:11;45.92;;;19.25;;
37459;SDS011;23318;50.966;5.284;2024-01-11T03:59:37;44.83;;;20.50;;
37459;SDS011;23318;50.966;5.284;2024-01-11T04:02:03;45.97;;;19.98;;
37459;SDS011;23318;50.966;5.284;2024-01-11T04:04:28;47.38;;;19.73;;
37459;SDS011;23318;50.966;5.284;2024-01-11T04:06:54;44.90;;;17.13;;
37459;SDS011;23318;50.966;5.284;2024-01-11T04:09:20;50.25;;;19.15;;
37459;SDS011;23318;50.966;5.284;2024-01-11T04:11:45;47.22;;;19.30;;
37459;SDS011;23318;50.966;5.284;2024-01-11T04:14:11;50.65;;;20.73;;
37459;SDS011;23318;50.966;5.284;2024-01-11T04:16:41;57.72;;;22.35;;
37459;SDS011;23318;50.966;5.284;2024-01-11T04:19:07;49.22;;;21.02;;
37459;SDS011;23318;50.966;5.284;2024-01-11T04:21:33;49.65;;;20.90;;
37459;SDS011;23318;50.966;5.284;2024-01-11T04:23:58;49.00;;;21.10;;
37459;SDS011;23318;50.966;5.284;2024-01-11T04:26:25;51.65;;;20.67;;
37459;SDS011;23318;50.966;5.284;2024-01-11T04:28:51;55.17;;;21.13;;
37459;SDS011;23318;50.966;5.284;2024-01-11T04:31:18;47.10;;;19.88;;
37459;SDS011;23318;50.966;5.284;2024-01-11T04:33:44;51.60;;;20.20;;
37459;SDS011;23318;50.966;5.284;2024-01-11T04:36:10;47.17;;;19.20;;
37459;SDS011;23318;50.966;5.284;2024-01-11T04:38:37;54.13;;;20.25;;
37459;SDS011;23318;50.966;5.284;2024-01-11T04:41:07;51.33;;;20.90;;
37459;SDS011;23318;50.966;5.284;2024-01-11T04:46:16;51.67;;;20.60;;
37459;SDS011;23318;50.966;5.284;2024-01-11T04:48:43;51.20;;;20.88;;
37459;SDS011;23318;50.966;5.284;2024-01-11T04:51:10;51.45;;;20.20;;
37459;SDS011;23318;50.966;5.284;2024-01-11T04:53:37;46.42;;;20.85;;
37459;SDS011;23318;50.966;5.284;2024-01-11T04:56:06;52.25;;;21.52;;
37459;SDS011;23318;50.966;5.284;2024-01-11T04:58:33;48.83;;;21.38;;
37459;SDS011;23318;50.966;5.284;2024-01-11T05:00:59;55.63;;;22.23;;
37459;SDS011;23318;50.966;5.284;2024-01-11T05:03:25;58.50;;;21.52;;
37459;SDS011;23318;50.966;5.284;2024-01-11T05:05:51;56.38;;;22.52;;
37459;SDS011;23318;50.966;5.284;2024-01-11T05:08:16;58.30;;;23.67;;
37459;SDS011;23318;50.966;5.284;2024-01-11T05:10:42;56.50;;;21.65;;
37459;SDS011;23318;50.966;5.284;2024-01-11T05:13:09;52.22;;;22.13;;
37459;SDS011;23318;50.966;5.284;2024-01-11T05:15:35;55.40;;;23.02;;
37459;SDS011;23318;50.966;5.284;2024-01-11T05:18:01;54.42;;;22.02;;
37459;SDS011;23318;50.966;5.284;2024-01-11T05:20:26;54.08;;;21.38;;
37459;SDS011;23318;50.966;5.284;2024-01-11T05:22:52;58.65;;;22.80;;
37459;SDS011;23318;50.966;5.284;2024-01-11T05:25:18;57.13;;;21.40;;
37459;SDS011;23318;50.966;5.284;2024-01-11T05:27:43;52.47;;;21.38;;
37459;SDS011;23318;50.966;5.284;2024-01-11T05:30:09;58.65;;;23.83;;
37459;SDS011;23318;50.966;5.284;2024-01-11T05:32:35;50.40;;;21.15;;
37459;SDS011;23318;50.966;5.284;2024-01-11T05:35:00;55.47;;;22.20;;
37459;SDS011;23318;50.966;5.284;2024-01-11T05:37:26;54.13;;;22.90;;
37459;SDS011;23318;50.966;5.284;2024-01-11T05:39:52;56.45;;;23.20;;
37459;SDS011;23318;50.966;5.284;2024-01-11T05:42:19;51.83;;;22.13;;
37459;SDS011;23318;50.966;5.284;2024-01-11T05:44:44;52.88;;;20.27;;
37459;SDS011;23318;50.966;5.284;2024-01-11T05:47:10;52.53;;;21.63;;
37459;SDS011;23318;50.966;5.284;2024-01-11T05:49:36;52.13;;;20.75;;
37459;SDS011;23318;50.966;5.284;2024-01-11T05:52:01;54.08;;;22.60;;
37459;SDS011;23318;50.966;5.284;2024-01-11T05:54:27;54.38;;;22.77;;
37459;SDS011;23318;50.966;5.284;2024-01-11T05:56:53;58.83;;;25.42;;
37459;SDS011;23318;50.966;5.284;2024-01-11T05:59:21;74.65;;;26.52;;
37459;SDS011;23318;50.966;5.284;2024-01-11T06:01:47;137.93;;;50.97;;
37459;SDS011;23318;50.966;5.284;2024-01-11T06:04:13;124.50;;;47.95;;
37459;SDS011;23318;50.966;5.284;2024-01-11T06:06:39;98.13;;;40.30;;
37459;SDS011;23318;50.966;5.284;2024-01-11T06:09:05;97.20;;;39.22;;
37459;SDS011;23318;50.966;5.284;2024-01-11T06:11:31;152.82;;;59.80;;
37459;SDS011;23318;50.966;5.284;2024-01-11T06:13:57;69.65;;;28.00;;
37459;SDS011;23318;50.966;5.284;2024-01-11T06:16:22;60.53;;;26.20;;
37459;SDS011;23318;50.966;5.284;2024-01-11T06:18:48;60.63;;;25.23;;
37459;SDS011;23318;50.966;5.284;2024-01-11T06:21:15;65.53;;;26.77;;
37459;SDS011;23318;50.966;5.284;2024-01-11T06:23:42;62.53;;;26.60;;
37459;SDS011;23318;50.966;5.284;2024-01-11T06:26:08;72.30;;;28.38;;
37459;SDS011;23318;50.966;5.284;2024-01-11T06:28:34;62.47;;;27.90;;
37459;SDS011;23318;50.966;5.284;2024-01-11T06:31:00;63.72;;;26.85;;
37459;SDS011;23318;50.966;5.284;2024-01-11T06:33:25;66.72;;;27.92;;
37459;SDS011;23318;50.966;5.284;2024-01-11T06:35:51;62.53;;;26.98;;
37459;SDS011;23318;50.966;5.284;2024-01-11T06:38:17;67.43;;;29.10;;
37459;SDS011;23318;50.966;5.284;2024-01-11T06:40:42;65.68;;;29.80;;
37459;SDS011;23318;50.966;5.284;2024-01-11T06:43:08;70.35;;;29.92;;
37459;SDS011;23318;50.966;5.284;2024-01-11T06:45:34;70.53;;;29.17;;
37459;SDS011;23318;50.966;5.284;2024-01-11T06:48:00;70.95;;;29.05;;
37459;SDS011;23318;50.966;5.284;2024-01-11T06:50:26;59.47;;;25.95;;
37459;SDS011;23318;50.966;5.284;2024-01-11T06:52:51;68.82;;;26.10;;
37459;SDS011;23318;50.966;5.284;2024-01-11T06:55:17;60.80;;;26.80;;
37459;SDS011;23318;50.966;5.284;2024-01-11T06:57:46;74.78;;;32.70;;
37459;SDS011;23318;50.966;5.284;2024-01-11T07:00:12;66.18;;;28.02;;
37459;SDS011;23318;50.966;5.284;2024-01-11T07:02:38;61.35;;;23.80;;
37459;SDS011;23318;50.966;5.284;2024-01-11T07:05:05;64.03;;;26.00;;
37459;SDS011;23318;50.966;5.284;2024-01-11T07:07:31;78.38;;;35.90;;
37459;SDS011;23318;50.966;5.284;2024-01-11T07:09:57;86.20;;;36.33;;
37459;SDS011;23318;50.966;5.284;2024-01-11T07:12:23;78.30;;;30.33;;
37459;SDS011;23318;50.966;5.284;2024-01-11T07:14:50;91.93;;;37.97;;
37459;SDS011;23318;50.966;5.284;2024-01-11T07:17:16;86.72;;;35.08;;
37459;SDS011;23318;50.966;5.284;2024-01-11T07:19:42;75.50;;;29.48;;
37459;SDS011;23318;50.966;5.284;2024-01-11T07:22:08;90.57;;;34.25;;
37459;SDS011;23318;50.966;5.284;2024-01-11T07:24:34;93.80;;;38.67;;
37459;SDS011;23318;50.966;5.284;2024-01-11T07:27:05;76.35;;;30.02;;
37459;SDS011;23318;50.966;5.284;2024-01-11T07:29:32;72.43;;;28.98;;
37459;SDS011;23318;50.966;5.284;2024-01-11T07:31:58;66.65;;;26.70;;
37459;SDS011;23318;50.966;5.284;2024-01-11T07:34:24;68.35;;;26.17;;
37459;SDS011;23318;50.966;5.284;2024-01-11T07:36:51;73.13;;;25.85;;
37459;SDS011;23318;50.966;5.284;2024-01-11T07:39:17;62.95;;;24.73;;
37459;SDS011;23318;50.966;5.284;2024-01-11T07:41:43;61.97;;;25.05;;
37459;SDS011;23318;50.966;5.284;2024-01-11T07:44:09;61.40;;;23.95;;
37459;SDS011;23318;50.966;5.284;2024-01-11T07:46:34;62.00;;;24.98;;
37459;SDS011;23318;50.966;5.284;2024-01-11T07:49:01;56.50;;;23.25;;
37459;SDS011;23318;50.966;5.284;2024-01-11T07:51:27;54.28;;;22.60;;
37459;SDS011;23318;50.966;5.284;2024-01-11T07:53:53;68.55;;;26.35;;
37459;SDS011;23318;50.966;5.284;2024-01-11T07:56:19;66.03;;;27.65;;
37459;SDS011;23318;50.966;5.284;2024-01-11T07:58:44;63.58;;;26.42;;
37459;SDS011;23318;50.966;5.284;2024-01-11T08:01:11;61.25;;;24.27;;
37459;SDS011;23318;50.966;5.284;2024-01-11T08:03:37;63.67;;;24.17;;
37459;SDS011;23318;50.966;5.284;2024-01-11T08:06:03;71.82;;;24.48;;
37459;SDS011;23318;50.966;5.284;2024-01-11T08:08:32;59.20;;;25.15;;
37459;SDS011;23318;50.966;5.284;2024-01-11T08:10:58;65.85;;;27.23;;
37459;SDS011;23318;50.966;5.284;2024-01-11T08:13:24;73.25;;;28.58;;
37459;SDS011;23318;50.966;5.284;2024-01-11T08:15:49;62.10;;;25.33;;
37459;SDS011;23318;50.966;5.284;2024-01-11T08:18:17;62.72;;;25.38;;
37459;SDS011;23318;50.966;5.284;2024-01-11T08:20:43;57.33;;;24.70;;
37459;SDS011;23318;50.966;5.284;2024-01-11T08:23:09;56.17;;;25.00;;
37459;SDS011;23318;50.966;5.284;2024-01-11T08:25:35;67.22;;;26.55;;
37459;SDS011;23318;50.966;5.284;2024-01-11T08:28:00;61.72;;;24.27;;
37459;SDS011;23318;50.966;5.284;2024-01-11T08:30:28;63.75;;;25.73;;
37459;SDS011;23318;50.966;5.284;2024-01-11T08:32:54;62.90;;;26.70;;
37459;SDS011;23318;50.966;5.284;2024-01-11T08:35:20;70.80;;;27.88;;
37459;SDS011;23318;50.966;5.284;2024-01-11T08:37:46;82.95;;;34.28;;
37459;SDS011;23318;50.966;5.284;2024-01-11T08:40:12;148.20;;;63.42;;
37459;SDS011;23318;50.966;5.284;2024-01-11T08:42:38;64.80;;;27.85;;
37459;SDS011;23318;50.966;5.284;2024-01-11T08:45:05;71.95;;;28.65;;
37459;SDS011;23318;50.966;5.284;2024-01-11T08:47:32;66.65;;;28.67;;
37459;SDS011;23318;50.966;5.284;2024-01-11T08:49:59;73.60;;;26.85;;
37459;SDS011;23318;50.966;5.284;2024-01-11T08:52:24;72.00;;;30.25;;
37459;SDS011;23318;50.966;5.284;2024-01-11T08:54:50;67.88;;;27.42;;
37459;SDS011;23318;50.966;5.284;2024-01-11T08:57:15;59.95;;;28.02;;
37459;SDS011;23318;50.966;5.284;2024-01-11T08:59:42;66.53;;;27.20;;
37459;SDS011;23318;50.966;5.284;2024-01-11T09:02:07;63.47;;;27.00;;
37459;SDS011;23318;50.966;5.284;2024-01-11T09:04:33;74.20;;;28.00;;
37459;SDS011;23318;50.966;5.284;2024-01-11T09:06:59;58.60;;;26.25;;
37459;SDS011;23318;50.966;5.284;2024-01-11T09:09:25;62.78;;;24.67;;
37459;SDS011;23318;50.966;5.284;2024-01-11T09:11:50;68.07;;;27.33;;
37459;SDS011;23318;50.966;5.284;2024-01-11T09:14:16;62.78;;;26.35;;
37459;SDS011;23318;50.966;5.284;2024-01-11T09:16:42;63.58;;;25.65;;
37459;SDS011;23318;50.966;5.284;2024-01-11T09:19:09;61.42;;;26.02;;
37459;SDS011;23318;50.966;5.284;2024-01-11T09:21:35;64.95;;;28.00;;
37459;SDS011;23318;50.966;5.284;2024-01-11T09:24:01;62.42;;;24.95;;
37459;SDS011;23318;50.966;5.284;2024-01-11T09:26:27;62.45;;;26.77;;
37459;SDS011;23318;50.966;5.284;2024-01-11T09:28:53;57.88;;;25.98;;
37459;SDS011;23318;50.966;5.284;2024-01-11T09:31:18;67.03;;;28.70;;
37459;SDS011;23318;50.966;5.284;2024-01-11T09:33:44;57.30;;;25.52;;
37459;SDS011;23318;50.966;5.284;2024-01-11T09:36:10;71.93;;;29.48;;
37459;SDS011;23318;50.966;5.284;2024-01-11T09:38:36;57.92;;;25.25;;
37459;SDS011;23318;50.966;5.284;2024-01-11T09:43:33;63.50;;;26.90;;
37459;SDS011;23318;50.966;5.284;2024-01-11T09:45:59;63.95;;;26.20;;
37459;SDS011;23318;50.966;5.284;2024-01-11T09:48:32;61.90;;;26.58;;
37459;SDS011;23318;50.966;5.284;2024-01-11T09:51:03;66.25;;;26.88;;
37459;SDS011;23318;50.966;5.284;2024-01-11T09:53:34;63.88;;;25.70;;
37459;SDS011;23318;50.966;5.284;2024-01-11T09:56:03;60.38;;;26.05;;
37459;SDS011;23318;50.966;5.284;2024-01-11T09:58:34;67.68;;;26.77;;
37459;SDS011;23318;50.966;5.284;2024-01-11T10:01:02;63.15;;;29.52;;
37459;SDS011;23318;50.966;5.284;2024-01-11T10:03:32;59.92;;;26.42;;
37459;SDS011;23318;50.966;5.284;2024-01-11T10:05:58;78.55;;;30.73;;
37459;SDS011;23318;50.966;5.284;2024-01-11T10:08:25;72.82;;;30.67;;
37459;SDS011;23318;50.966;5.284;2024-01-11T10:10:51;63.80;;;25.17;;
37459;SDS011;23318;50.966;5.284;2024-01-11T10:13:17;59.60;;;24.17;;
37459;SDS011;23318;50.966;5.284;2024-01-11T10:15:43;66.18;;;26.98;;
37459;SDS011;23318;50.966;5.284;2024-01-11T10:18:09;72.75;;;28.40;;
37459;SDS011;23318;50.966;5.284;2024-01-11T10:20:35;66.55;;;28.23;;
37459;SDS011;23318;50.966;5.284;2024-01-11T10:23:02;61.17;;;25.17;;
37459;SDS011;23318;50.966;5.284;2024-01-11T10:25:28;61.83;;;24.23;;
37459;SDS011;23318;50.966;5.284;2024-01-11T10:27:54;52.28;;;21.88;;
37459;SDS011;23318;50.966;5.284;2024-01-11T10:30:20;59.55;;;21.40;;
37459;SDS011;23318;50.966;5.284;2024-01-11T10:32:47;82.88;;;32.60;;
37459;SDS011;23318;50.966;5.284;2024-01-11T10:35:14;64.15;;;27.25;;
37459;SDS011;23318;50.966;5.284;2024-01-11T10:37:43;60.03;;;22.98;;
37459;SDS011;23318;50.966;5.284;2024-01-11T10:40:09;77.18;;;29.08;;
37459;SDS011;23318;50.966;5.284;2024-01-11T10:42:39;70.78;;;28.05;;
37459;SDS011;23318;50.966;5.284;2024-01-11T10:45:11;57.25;;;21.60;;
37459;SDS011;23318;50.966;5.284;2024-01-11T10:47:55;51.42;;;20.63;;
37459;SDS011;23318;50.966;5.284;2024-01-11T10:50:26;49.63;;;20.35;;
37459;SDS011;23318;50.966;5.284;2024-01-11T10:55:33;76.47;;;29.55;;
37459;SDS011;23318;50.966;5.284;2024-01-11T10:58:00;63.03;;;24.38;;
37459;SDS011;23318;50.966;5.284;2024-01-11T11:00:27;69.13;;;27.10;;
37459;SDS011;23318;50.966;5.284;2024-01-11T11:02:56;62.95;;;24.63;;
37459;SDS011;23318;50.966;5.284;2024-01-11T11:05:25;104.72;;;38.10;;
37459;SDS011;23318;50.966;5.284;2024-01-11T11:07:53;56.85;;;23.48;;
37459;SDS011;23318;50.966;5.284;2024-01-11T11:10:21;49.47;;;20.10;;
37459;SDS011;23318;50.966;5.284;2024-01-11T11:12:48;48.58;;;21.08;;
37459;SDS011;23318;50.966;5.284;2024-01-11T11:15:14;90.07;;;34.85;;
37459;SDS011;23318;50.966;5.284;2024-01-11T11:17:40;64.70;;;25.25;;
37459;SDS011;23318;50.966;5.284;2024-01-11T11:20:10;49.15;;;19.60;;
37459;SDS011;23318;50.966;5.284;2024-01-11T11:22:37;43.38;;;19.52;;
37459;SDS011;23318;50.966;5.284;2024-01-11T11:25:11;40.90;;;16.98;;
37459;SDS011;23318;50.966;5.284;2024-01-11T11:27:49;41.42;;;17.13;;
37459;SDS011;23318;50.966;5.284;2024-01-11T11:30:14;56.70;;;23.02;;
37459;SDS011;23318;50.966;5.284;2024-01-11T11:32:45;49.15;;;25.17;;
37459;SDS011;23318;50.966;5.284;2024-01-11T11:35:11;38.58;;;19.08;;
37459;SDS011;23318;50.966;5.284;2024-01-11T11:37:37;49.05;;;18.63;;
37459;SDS011;23318;50.966;5.284;2024-01-11T11:40:08;39.90;;;17.65;;
37459;SDS011;23318;50.966;5.284;2024-01-11T11:42:35;44.28;;;17.23;;
37459;SDS011;23318;50.966;5.284;2024-01-11T11:45:01;38.38;;;16.27;;
37459;SDS011;23318;50.966;5.284;2024-01-11T11:47:34;39.28;;;17.55;;
37459;SDS011;23318;50.966;5.284;2024-01-11T11:50:07;37.33;;;15.73;;
37459;SDS011;23318;50.966;5.284;2024-01-11T11:52:39;39.10;;;16.95;;
37459;SDS011;23318;50.966;5.284;2024-01-11T11:55:08;34.00;;;15.77;;
37459;SDS011;23318;50.966;5.284;2024-01-11T11:57:35;36.63;;;16.25;;
37459;SDS011;23318;50.966;5.284;2024-01-11T12:00:01;33.97;;;14.70;;
37459;SDS011;23318;50.966;5.284;2024-01-11T12:02:31;35.70;;;14.30;;
37459;SDS011;23318;50.966;5.284;2024-01-11T12:04:57;34.25;;;13.48;;
37459;SDS011;23318;50.966;5.284;2024-01-11T12:07:23;29.30;;;13.43;;
37459;SDS011;23318;50.966;5.284;2024-01-11T12:09:49;30.80;;;13.73;;
37459;SDS011;23318;50.966;5.284;2024-01-11T12:12:16;33.55;;;14.52;;
37459;SDS011;23318;50.966;5.284;2024-01-11T12:14:46;32.35;;;13.93;;
37459;SDS011;23318;50.966;5.284;2024-01-11T12:17:12;32.42;;;14.27;;
37459;SDS011;23318;50.966;5.284;2024-01-11T12:19:38;36.60;;;14.10;;
37459;SDS011;23318;50.966;5.284;2024-01-11T12:22:04;33.13;;;14.00;;
37459;SDS011;23318;50.966;5.284;2024-01-11T12:24:30;29.02;;;12.98;;
37459;SDS011;23318;50.966;5.284;2024-01-11T12:26:58;26.70;;;12.80;;
37459;SDS011;23318;50.966;5.284;2024-01-11T12:29:25;26.85;;;13.48;;
37459;SDS011;23318;50.966;5.284;2024-01-11T12:31:51;31.00;;;14.07;;
37459;SDS011;23318;50.966;5.284;2024-01-11T12:34:17;30.23;;;12.77;;
37459;SDS011;23318;50.966;5.284;2024-01-11T12:36:43;28.58;;;13.30;;
37459;SDS011;23318;50.966;5.284;2024-01-11T12:39:10;33.03;;;12.98;;
37459;SDS011;23318;50.966;5.284;2024-01-11T12:41:38;30.38;;;13.35;;
37459;SDS011;23318;50.966;5.284;2024-01-11T12:44:04;27.08;;;12.32;;
37459;SDS011;23318;50.966;5.284;2024-01-11T12:46:31;35.33;;;13.18;;
37459;SDS011;23318;50.966;5.284;2024-01-11T12:48:56;26.92;;;13.25;;
37459;SDS011;23318;50.966;5.284;2024-01-11T12:51:22;25.02;;;11.43;;
37459;SDS011;23318;50.966;5.284;2024-01-11T12:53:50;23.13;;;11.70;;
37459;SDS011;23318;50.966;5.284;2024-01-11T12:56:16;27.85;;;12.10;;
37459;SDS011;23318;50.966;5.284;2024-01-11T12:58:43;26.15;;;11.70;;
37459;SDS011;23318;50.966;5.284;2024-01-11T13:01:11;24.48;;;12.20;;
37459;SDS011;23318;50.966;5.284;2024-01-11T13:03:39;30.05;;;14.60;;
37459;SDS011;23318;50.966;5.284;2024-01-11T13:06:08;25.73;;;11.70;;
37459;SDS011;23318;50.966;5.284;2024-01-11T13:08:36;23.88;;;11.07;;
37459;SDS011;23318;50.966;5.284;2024-01-11T13:11:05;29.10;;;13.13;;
37459;SDS011;23318;50.966;5.284;2024-01-11T13:13:34;26.70;;;12.75;;
37459;SDS011;23318;50.966;5.284;2024-01-11T13:16:01;26.77;;;12.52;;
37459;SDS011;23318;50.966;5.284;2024-01-11T13:18:36;32.13;;;11.45;;
37459;SDS011;23318;50.966;5.284;2024-01-11T13:21:02;30.55;;;11.93;;
37459;SDS011;23318;50.966;5.284;2024-01-11T13:23:27;27.05;;;13.55;;
37459;SDS011;23318;50.966;5.284;2024-01-11T13:25:53;25.17;;;12.15;;
37459;SDS011;23318;50.966;5.284;2024-01-11T13:28:19;30.58;;;11.98;;
37459;SDS011;23318;50.966;5.284;2024-01-11T13:30:45;27.70;;;12.05;;
37459;SDS011;23318;50.966;5.284;2024-01-11T13:33:11;28.45;;;13.02;;
37459;SDS011;23318;50.966;5.284;2024-01-11T13:35:38;28.00;;;12.20;;
37459;SDS011;23318;50.966;5.284;2024-01-11T13:38:04;26.95;;;11.20;;
37459;SDS011;23318;50.966;5.284;2024-01-11T13:40:30;28.13;;;11.85;;
37459;SDS011;23318;50.966;5.284;2024-01-11T13:42:57;27.38;;;12.10;;
37459;SDS011;23318;50.966;5.284;2024-01-11T13:45:23;26.25;;;11.52;;
37459;SDS011;23318;50.966;5.284;2024-01-11T13:47:50;28.13;;;11.77;;
37459;SDS011;23318;50.966;5.284;2024-01-11T13:50:16;38.55;;;11.63;;
37459;SDS011;23318;50.966;5.284;2024-01-11T13:52:43;26.20;;;11.27;;
37459;SDS011;23318;50.966;5.284;2024-01-11T13:55:09;27.95;;;12.50;;
37459;SDS011;23318;50.966;5.284;2024-01-11T13:57:38;22.90;;;10.63;;
37459;SDS011;23318;50.966;5.284;2024-01-11T14:00:05;22.98;;;10.30;;
37459;SDS011;23318;50.966;5.284;2024-01-11T14:02:32;21.92;;;10.60;;
37459;SDS011;23318;50.966;5.284;2024-01-11T14:04:58;28.10;;;11.38;;
37459;SDS011;23318;50.966;5.284;2024-01-11T14:07:24;29.70;;;11.30;;
37459;SDS011;23318;50.966;5.284;2024-01-11T14:09:53;21.33;;;9.88;;
37459;SDS011;23318;50.966;5.284;2024-01-11T14:12:19;26.63;;;11.90;;
37459;SDS011;23318;50.966;5.284;2024-01-11T14:14:44;25.02;;;11.80;;
37459;SDS011;23318;50.966;5.284;2024-01-11T14:17:10;23.95;;;10.25;;
37459;SDS011;23318;50.966;5.284;2024-01-11T14:19:35;23.80;;;10.52;;
37459;SDS011;23318;50.966;5.284;2024-01-11T14:22:01;24.30;;;10.32;;
37459;SDS011;23318;50.966;5.284;2024-01-11T14:24:27;26.95;;;10.68;;